aviador You're here:

KASD Decoded Metar

SLIDELL 22 in LA, USA
Report Time2017-05-25 00:53:00
UTC Time2017-05-25 01:16:09
Flight Rules vfr VFR
WindCalm
Visibility9999 m
Phenomena:N/A
Clouds:Few 070 Hf
Expected CloudBase > 4,000 ft AGL from Temp-Dew spread
CeilingNone
Temp21°C (ISA +6)
Dew Point11°C (53% RH)
QNH1005 hPa
Density Alt1,184 ft
Elevation30 ft
Report Wrong Elevation
Raw Report
KASD 250053Z AUTO 00000KT 10SM FEW070 21/11 A2968 RMK AO2 SLP051
T02060111=

Extra information for KASD:More info

Metar Taf Metar & Taf Last 4 Metars F.Rules Stats Wind Profile Meteogram Temp Stats Airport Information Weather charts Add Link Nearby VenuesMetar ALERT Operation Metar Decoded Social comments

AIRNAV info for KASD